Aeroporto :
LOGIN :

Iscrizione | Disclaimer

   EN    FR    IT 

 










Sommario :    VFR   VFR Marginale   IFR   IFR Intensivo   IFR Molto Intensivo
Visibilità : 
Base nubi : 
>= 8 km
>= 3000ft
5 / 8 km
1000 / 3000 ft
1500m / 5 km
500 / 1000 ft
800 / 1500m
200 / 500 ft
< 800m
< 200 ft
Simboli :   Temporali  Nebbia  Neve Forte  Precipitazioni Forti  Vento > 20 kt
SIGMETs :   Varie  Temporali  Ghiacco  Turbolenza  Onda orograficha  Ceneri Vulcaniche






- Altitudine del aeroporto : 465 ft
- Codice IATA : LEJ


EDDP - Leipzig Halle

ULTIMO METAR :
  • 220950Z 22008KT 8000 BKN011 M00/M01 Q1033 TEMPO 4000 -FZDZ BKN008

METARs OBSOLETI :
  • 220920Z 21008KT 8000 BKN010 M00/M01 Q1033 TEMPO 4000 -FZDZ BKN008
  • 220850Z 22009KT 8000 BKN012 M01/M02 Q1033 TEMPO 4000 -FZDZ BKN008
  • 220820Z 21010KT 9999 BKN009 OVC012 M01/M03 Q1033 TEMPO -FZDZ
  • 220750Z 22006KT 9999 BKN008 OVC013 M02/M03 Q1033 TEMPO -FZDZ
  • 220720Z 23009KT 9999 BKN009 M02/M04 Q1033 TEMPO -FZDZ

TAF AMD TAF EDDP
Valido dal 22 a 06 ore il 23 a 06 ore UTC


220646Z 2206/2306 24008KT CAVOK
BECMG 2207/2209 BKN010
PROB30
TEMPO 2207/2211 2500 -FZDZ BKN005
BECMG 2211/2214 BKN008
PROB40
TEMPO 2214/2222 2500 -DZ BKN004
BECMG 2222/2301 BKN015
PROB30
TEMPO 2222/2306 4000 BR



MetMap, La meteo Aeronautica in un colpo d'occhio ! - Copyright ORBIFLY Dicembre 2007 - Disclaimer

ORBIFLY MET'MAP TEAM :

Programmazione e sviluppo : Alexandra Zaïnal
Concezione : Baudouin d'Aumeries
Aiuto per la programmazione : Marc-Olivier Méhu
Supporto tecnico e logistico : Manuel Goepfert
Aiuto per la traduzione : Arnaldo La Scala

Contatto : metmap@orbifly.com




FONTI E CREDITI :

   NOAA